Tombarra — MPRD6 — position and weather

sailwx.info

Track history (hours):
 
Tides and Currents Weather Stations Pressure Air Temp Water Temp Dewpoint Dewpoint Depression Visibility Wind Speed Wind Dir Waves Ship Positions

Tombarra

Last reported at 2016-May-03 11:28 UTC. Time now 2016-May-03 16:18 UTC.
Position N 31°08' W 081°32'.

Length 199 m; draft 9 m.

Type: Cargo ship. MMSI: 232971000.

Date/timePositionNaut miles runAvg speedWind from/ knotsBaromVisibWave heightAir tempDewpointWater temp
2016-May-03 11:28N 31°08' W 081°32'1 0.4
2016-May-03 08:31N 31°08' W 081°31'30314.4
2016-May-02 11:33N 33°53' W 076°30'1716.2
2016-May-02 10:31N 34°05' W 076°16'1916.4
2016-May-02 09:22N 34°19' W 076°00'1315.4
2016-May-02 08:33N 34°28' W 075°49'31915.9
2016-May-01 12:28N 39°25' W 073°23'1616.9
2016-May-01 11:32N 39°40' W 073°19'1717.0
2016-May-01 10:33N 39°56' W 073°17'1816.7
2016-May-01 09:27N 40°11' W 073°32'1416.1
2016-May-01 08:34N 40°22' W 073°44'1313.2
2016-May-01 07:33N 40°30' W 073°57'1111.2
2016-May-01 06:33N 40°39' W 074°07'2 2.3
2016-May-01 05:33N 40°41' W 074°08'1 1.0
2016-May-01 04:33N 40°42' W 074°09'0 0.0
2016-May-01 03:30N 40°42' W 074°09'0 0.0
2016-May-01 02:33N 40°42' W 074°09'0 0.0
2016-May-01 01:33N 40°42' W 074°09'0 0.0
2016-May-01 00:33N 40°42' W 074°09'0 0.0
2016-Apr-30 23:33N 40°42' W 074°09'0 0.0
2016-Apr-30 22:33N 40°42' W 074°09'1 0.6
2016-Apr-30 21:33N 40°41' W 074°08'3 2.7
2016-Apr-30 20:33N 40°39' W 074°07'2 2.4
2016-Apr-30 19:33N 40°40' W 074°04'0 0.0
2016-Apr-30 18:33N 40°40' W 074°04'0 0.0
2016-Apr-30 17:33N 40°40' W 074°04'0 0.0
2016-Apr-30 16:33N 40°40' W 074°04'0 0.0
2016-Apr-30 15:33N 40°40' W 074°04'0 0.0
2016-Apr-30 14:33N 40°40' W 074°04'0 0.0
2016-Apr-30 13:33N 40°40' W 074°04'0 0.0
2016-Apr-30 12:33N 40°40' W 074°04'0 0.0
2016-Apr-30 11:33N 40°40' W 074°04'0 0.0
2016-Apr-30 10:34N 40°40' W 074°04'5 4.7
2016-Apr-30 09:34N 40°36' W 074°02'1111.4
2016-Apr-30 08:33N 40°28' W 073°51'  
Track history (hours):
 
Tides and Currents Weather Stations Pressure Air Temp Water Temp Dewpoint Dewpoint Depression Visibility Wind Speed Wind Dir Waves Ship Positions

Tombarra

Last reported at 2016-May-03 11:28 UTC. Time now 2016-May-03 16:18 UTC.
Position N 31°08' W 081°32'.

Length 199 m; draft 9 m.

Type: Cargo ship. MMSI: 232971000.

Date/timePositionNaut miles runAvg speedWind from/ knotsBaromVisibWave heightAir tempDewpointWater temp
2016-May-03 11:28N 31°08' W 081°32'1 0.4
2016-May-03 08:31N 31°08' W 081°31'30314.4
2016-May-02 11:33N 33°53' W 076°30'1716.2
2016-May-02 10:31N 34°05' W 076°16'1916.4
2016-May-02 09:22N 34°19' W 076°00'1315.4
2016-May-02 08:33N 34°28' W 075°49'31915.9
2016-May-01 12:28N 39°25' W 073°23'1616.9
2016-May-01 11:32N 39°40' W 073°19'1717.0
2016-May-01 10:33N 39°56' W 073°17'1816.7
2016-May-01 09:27N 40°11' W 073°32'1416.1
2016-May-01 08:34N 40°22' W 073°44'1313.2
2016-May-01 07:33N 40°30' W 073°57'1111.2
2016-May-01 06:33N 40°39' W 074°07'2 2.3
2016-May-01 05:33N 40°41' W 074°08'1 1.0
2016-May-01 04:33N 40°42' W 074°09'0 0.0
2016-May-01 03:30N 40°42' W 074°09'0 0.0
2016-May-01 02:33N 40°42' W 074°09'0 0.0
2016-May-01 01:33N 40°42' W 074°09'0 0.0
2016-May-01 00:33N 40°42' W 074°09'0 0.0
2016-Apr-30 23:33N 40°42' W 074°09'0 0.0
2016-Apr-30 22:33N 40°42' W 074°09'1 0.6
2016-Apr-30 21:33N 40°41' W 074°08'3 2.7
2016-Apr-30 20:33N 40°39' W 074°07'2 2.4
2016-Apr-30 19:33N 40°40' W 074°04'0 0.0
2016-Apr-30 18:33N 40°40' W 074°04'0 0.0
2016-Apr-30 17:33N 40°40' W 074°04'0 0.0
2016-Apr-30 16:33N 40°40' W 074°04'0 0.0
2016-Apr-30 15:33N 40°40' W 074°04'0 0.0
2016-Apr-30 14:33N 40°40' W 074°04'0 0.0
2016-Apr-30 13:33N 40°40' W 074°04'0 0.0
2016-Apr-30 12:33N 40°40' W 074°04'0 0.0
2016-Apr-30 11:33N 40°40' W 074°04'0 0.0
2016-Apr-30 10:34N 40°40' W 074°04'5 4.7
2016-Apr-30 09:34N 40°36' W 074°02'1111.4
2016-Apr-30 08:33N 40°28' W 073°51'  

Dump ship's entire track history